Weather History for St. James, MN

Change the Weather History Date:

Sunday, March 2, 2014

  Actual Average Record
Temperature  
Mean Temperature -4 °F -  
Max Temperature 5 °F 36 °F 66 °F (1974)
Min Temperature -13 °F 18 °F -13 °F (2014)
Degree Days  
Heating Degree Days 69    
Moisture  
Dew Point -14 °F    
Average Humidity 62    
Maximum Humidity 77    
Minimum Humidity 51    
Precipitation  
Precipitation 0.00 in - - ()
Sea Level Pressure  
Sea Level Pressure 30.54 in    
Wind  
Wind Speed 11 mph (WNW)    
Max Wind Speed 17 mph    
Max Gust Speed 22 mph    
Visibility 10 miles    
Events      
Averages and records for this station are not official NWS values.
T = Trace of Precipitation, MM = Missing Value Source: NWS Daily Summary

Daily Weather History Graph

Daily Weather History Graph

Search for Another Location

Airport:

Trip Planner

Search our weather history database for the weather conditions in past years. The results will help you decide how hot, cold, wet, or windy it might be!

Date:

Astronomy

Mar. 02, 2014 Rise Set
Actual Time 6:53 AM CST 6:08 PM CST
Civil Twilight 6:24 AM CST 6:36 PM CST
Nautical Twilight 5:51 AM CST 7:10 PM CST
Astronomical Twilight 5:17 AM CST 7:43 PM CST
Moon 7:20 AM CST (3/2) 8:10 PM CST (3/2)
Length of Visible Light 12h 12m
Length of Day
11h 14m
Waxing Crescent, 3% of the Moon is Illuminated
Mar 2
Waxing Crescent
Mar 8
First Quarter
Mar 16
Full
Mar 23
Last Quarter
Mar 30
New

Hourly Weather History & Observations

Time (CST) Temp. Windchill Dew Point Humidity Pressure Visibility Wind Dir Wind Speed Gust Speed Precip Events Conditions
12:15 AM -7.6 °F -30.5 °F -18.4 °F 59% 30.54 in 10.0 mi NW 17.3 mph 21.9 mph N/A   Clear
12:35 AM -7.6 °F -29.1 °F -18.4 °F 59% 30.54 in 10.0 mi NW 15.0 mph - N/A   Scattered Clouds
12:55 AM -7.6 °F -30.5 °F -18.4 °F 59% 30.55 in 10.0 mi NW 17.3 mph - N/A   Scattered Clouds
1:15 AM -9.4 °F -31.4 °F -18.4 °F 65% 30.55 in 10.0 mi NW 15.0 mph - N/A   Clear
1:35 AM -9.4 °F -29.8 °F -18.4 °F 65% 30.54 in 10.0 mi NW 12.7 mph - N/A   Clear
1:54 AM -9.4 °F -31.4 °F -20.2 °F 59% 30.55 in 10.0 mi NW 15.0 mph - N/A   Clear
2:15 AM -9.4 °F -32.1 °F -20.2 °F 59% 30.56 in 10.0 mi NW 16.1 mph - N/A   Clear
2:35 AM -9.4 °F -31.4 °F -20.2 °F 59% 30.56 in 10.0 mi NW 15.0 mph - N/A   Clear
2:55 AM -11.2 °F -32.9 °F -20.2 °F 64% 30.54 in 10.0 mi NW 13.8 mph - N/A   Clear
3:15 AM -11.2 °F -30.1 °F -20.2 °F 64% 30.55 in 10.0 mi NW 10.4 mph - N/A   Clear
3:35 AM -11.2 °F -32.1 °F -20.2 °F 64% 30.54 in 10.0 mi NW 12.7 mph - N/A   Clear
3:54 AM -11.2 °F -29.0 °F -20.2 °F 64% 30.55 in 10.0 mi NW 9.2 mph - N/A   Clear
4:15 AM -11.2 °F -27.8 °F -20.2 °F 64% 30.56 in 10.0 mi WNW 8.1 mph - N/A   Clear
4:35 AM -11.2 °F -29.0 °F -20.2 °F 64% 30.56 in 10.0 mi NW 9.2 mph - N/A   Clear
4:55 AM -11.2 °F -30.1 °F -20.2 °F 64% 30.56 in 10.0 mi NW 10.4 mph - N/A   Clear
5:15 AM -11.2 °F -27.8 °F -20.2 °F 64% 30.56 in 10.0 mi NW 8.1 mph - N/A   Clear
5:35 AM -13.0 °F -30.0 °F -20.2 °F 70% 30.56 in 10.0 mi NW 8.1 mph - N/A   Clear
5:55 AM -13.0 °F -31.3 °F -20.2 °F 70% 30.55 in 10.0 mi NW 9.2 mph - N/A   Clear
6:15 AM -13.0 °F -31.3 °F -20.2 °F 70% 30.56 in 10.0 mi NW 9.2 mph - N/A   Clear
6:35 AM -13.0 °F -27.0 °F -20.2 °F 70% 30.57 in 10.0 mi West 5.8 mph - N/A   Clear
6:55 AM -13.0 °F -28.6 °F -20.2 °F 70% 30.56 in 10.0 mi WNW 6.9 mph - N/A   Clear
7:14 AM -13.0 °F -27.0 °F -20.2 °F 70% 30.56 in 10.0 mi West 5.8 mph - N/A   Clear
7:35 AM -11.2 °F -26.4 °F -20.2 °F 64% 30.57 in 10.0 mi WNW 6.9 mph - N/A   Clear
7:55 AM -11.2 °F -26.4 °F -18.4 °F 70% 30.57 in 10.0 mi West 6.9 mph - N/A   Clear
8:15 AM -9.4 °F -24.3 °F -18.4 °F 65% 30.56 in 10.0 mi WNW 6.9 mph - N/A   Clear
8:35 AM -9.4 °F -24.3 °F -18.4 °F 65% 30.57 in 10.0 mi WNW 6.9 mph - N/A   Clear
8:55 AM -7.6 °F -24.6 °F -18.4 °F 59% 30.57 in 10.0 mi WNW 9.2 mph - N/A   Clear
9:15 AM -7.6 °F -25.7 °F -16.6 °F 65% 30.57 in 10.0 mi WNW 10.4 mph - N/A   Clear
9:35 AM -7.6 °F -25.7 °F -16.6 °F 65% 30.57 in 10.0 mi WNW 10.4 mph - N/A   Clear
9:55 AM -5.8 °F -24.4 °F -16.6 °F 60% 30.57 in 10.0 mi WNW 11.5 mph - N/A   Clear
10:15 AM -5.8 °F -26.0 °F -16.6 °F 60% 30.57 in 10.0 mi NW 13.8 mph - N/A   Clear
10:35 AM -4.0 °F -21.2 °F -16.6 °F 55% 30.57 in 10.0 mi WNW 10.4 mph - N/A   Clear
10:55 AM -4.0 °F -23.0 °F -14.8 °F 60% 30.58 in 10.0 mi WNW 12.7 mph - N/A   Clear
11:15 AM -2.2 °F -18.9 °F -14.8 °F 55% 30.59 in 10.0 mi WNW 10.4 mph - N/A   Clear
11:35 AM -2.2 °F -18.0 °F -14.8 °F 55% 30.59 in 10.0 mi WNW 9.2 mph - N/A   Clear
11:55 AM -2.2 °F -18.0 °F -14.8 °F 55% 30.59 in 10.0 mi WNW 9.2 mph - N/A   Clear
12:15 PM -0.4 °F -18.4 °F -14.8 °F 51% 30.59 in 10.0 mi West 12.7 mph - N/A   Clear
12:35 PM -0.4 °F -18.4 °F -14.8 °F 51% 30.58 in 10.0 mi West 12.7 mph - N/A   Clear
12:55 PM -0.4 °F -18.4 °F -11.2 °F 60% 30.56 in 10.0 mi WNW 12.7 mph - N/A   Clear
1:15 PM 1.4 °F -16.9 °F -11.2 °F 56% 30.55 in 10.0 mi WNW 13.8 mph 17.3 mph N/A   Clear
1:35 PM 1.4 °F -14.5 °F -11.2 °F 56% 30.54 in 10.0 mi WNW 10.4 mph - N/A   Clear
1:55 PM 1.4 °F -16.1 °F -11.2 °F 56% 30.52 in 10.0 mi WNW 12.7 mph 17.3 mph N/A   Clear
2:14 PM 3.2 °F -13.9 °F -9.4 °F 56% 30.52 in 10.0 mi WNW 12.7 mph - N/A   Clear
2:35 PM 3.2 °F -13.1 °F -9.4 °F 56% 30.53 in 10.0 mi WNW 11.5 mph - N/A   Clear
2:54 PM 3.2 °F -13.9 °F -9.4 °F 56% 30.53 in 10.0 mi WNW 12.7 mph - N/A   Clear
3:15 PM 3.2 °F -13.9 °F -9.4 °F 56% 30.53 in 10.0 mi West 12.7 mph - N/A   Clear
3:35 PM 5.0 °F -10.8 °F -7.6 °F 56% 30.54 in 10.0 mi NW 11.5 mph - N/A   Clear
3:54 PM 5.0 °F -10.8 °F -9.4 °F 52% 30.53 in 10.0 mi WNW 11.5 mph - N/A   Clear
4:15 PM 5.0 °F -10.0 °F -9.4 °F 52% 30.52 in 10.0 mi NW 10.4 mph - N/A   Clear
4:35 PM 5.0 °F -10.8 °F -7.6 °F 56% 30.52 in 10.0 mi NW 11.5 mph - N/A   Clear
4:55 PM 5.0 °F -10.8 °F -7.6 °F 56% 30.52 in 10.0 mi NW 11.5 mph - N/A   Clear
5:15 PM 3.2 °F -13.9 °F -7.6 °F 61% 30.51 in 10.0 mi NW 12.7 mph - N/A   Clear
5:35 PM 3.2 °F -12.2 °F -7.6 °F 61% 30.51 in 10.0 mi NW 10.4 mph - N/A   Clear
5:54 PM 3.2 °F -11.3 °F -7.6 °F 61% 30.50 in 10.0 mi NW 9.2 mph - N/A   Clear
6:15 PM 1.4 °F -9.9 °F -9.4 °F 61% 30.50 in 10.0 mi NW 5.8 mph - N/A   Clear
6:35 PM -0.4 °F -10.4 °F -9.4 °F 66% 30.50 in 10.0 mi WNW 4.6 mph - N/A   Clear
6:55 PM -0.4 °F -12.0 °F -9.4 °F 66% 30.49 in 10.0 mi WNW 5.8 mph - N/A   Clear
7:15 PM -0.4 °F -10.4 °F -9.4 °F 66% 30.49 in 10.0 mi West 4.6 mph - N/A   Clear
7:35 PM -2.2 °F -14.2 °F -11.2 °F 66% 30.49 in 10.0 mi WNW 5.8 mph - N/A   Clear
7:54 PM -0.4 °F -15.7 °F -11.2 °F 60% 30.48 in 10.0 mi NW 9.2 mph - N/A   Clear
8:15 PM -0.4 °F -15.7 °F -9.4 °F 66% 30.49 in 10.0 mi WNW 9.2 mph - N/A   Clear
8:35 PM 1.4 °F -13.5 °F -9.4 °F 61% 30.49 in 10.0 mi WNW 9.2 mph - N/A   Clear
8:55 PM -0.4 °F -13.4 °F -11.2 °F 60% 30.50 in 10.0 mi WNW 6.9 mph - N/A   Clear
9:15 PM -2.2 °F -12.5 °F -11.2 °F 66% 30.52 in 10.0 mi NW 4.6 mph - N/A   Clear
9:35 PM -2.2 °F - -11.2 °F 66% 30.52 in 10.0 mi Calm Calm - N/A   Clear
9:55 PM -2.2 °F -10.4 °F -11.2 °F 66% 30.52 in 10.0 mi West 3.5 mph - N/A   Clear
10:15 PM -0.4 °F -8.3 °F -11.2 °F 60% 30.53 in 10.0 mi WSW 3.5 mph - N/A   Clear
10:35 PM -4.0 °F -14.6 °F -11.2 °F 71% 30.53 in 10.0 mi SW 4.6 mph - N/A   Clear
10:55 PM -5.8 °F -16.7 °F -13.0 °F 71% 30.53 in 10.0 mi WSW 4.6 mph - N/A   Clear
11:15 PM -5.8 °F -16.7 °F -11.2 °F 77% 30.53 in 10.0 mi WSW 4.6 mph - N/A   Clear
11:35 PM -5.8 °F -14.5 °F -11.2 °F 77% 30.53 in 10.0 mi West 3.5 mph - N/A   Clear
11:55 PM -5.8 °F -14.5 °F -13.0 °F 71% 30.53 in 10.0 mi West 3.5 mph - N/A   Clear